createdAt,value
2023-01-26T00:01:29.934Z,89.7
2023-01-26T00:21:30.029Z,89.9
2023-01-26T00:41:30.026Z,89.9
2023-01-26T01:01:30.083Z,89.7
2023-01-26T01:21:30.111Z,89.8
2023-01-26T01:41:30.124Z,89.8
2023-01-26T02:01:30.274Z,89.5
2023-01-26T02:21:30.265Z,90.1
2023-01-26T02:41:30.405Z,90.7
2023-01-26T03:01:32.468Z,91
2023-01-26T03:21:30.473Z,91
2023-01-26T03:41:30.505Z,91
2023-01-26T04:01:30.532Z,90.6
2023-01-26T04:21:30.653Z,90.9
2023-01-26T04:41:30.666Z,91.6
2023-01-26T05:01:30.794Z,92.5
2023-01-26T05:21:31.794Z,92.2
2023-01-26T05:41:30.884Z,92.3
2023-01-26T06:01:30.952Z,92.2
2023-01-26T06:21:30.975Z,92
2023-01-26T06:41:31.095Z,92.3
2023-01-26T07:01:31.167Z,92.7
2023-01-26T07:21:31.149Z,92.6
2023-01-26T07:41:31.213Z,92.3
2023-01-26T08:01:31.223Z,91.8
2023-01-26T08:21:31.268Z,91.1
2023-01-26T08:41:31.307Z,90.6
2023-01-26T09:01:31.409Z,90.3
2023-01-26T09:21:31.533Z,91.3
2023-01-26T09:41:31.563Z,91.7
2023-01-26T10:01:31.582Z,90.4
2023-01-26T10:21:31.606Z,90.3
2023-01-26T10:41:31.778Z,89.5
2023-01-26T11:01:31.720Z,89.1
2023-01-26T11:21:31.782Z,87.5
2023-01-26T11:41:31.812Z,87.1
2023-01-26T12:01:31.912Z,87.3
2023-01-26T12:21:31.913Z,87.3
2023-01-26T12:41:32.046Z,87.4
2023-01-26T13:01:32.075Z,87.7
2023-01-26T13:21:32.010Z,87.8
2023-01-26T13:41:32.107Z,87.7
2023-01-26T14:01:32.338Z,88
2023-01-26T14:21:32.255Z,88.3
2023-01-26T14:41:32.347Z,88.5
2023-01-26T15:01:32.428Z,88.7
2023-01-26T15:21:32.398Z,88.2
2023-01-26T15:41:32.436Z,87.9
2023-01-26T16:01:32.573Z,88
2023-01-26T16:21:32.675Z,87.8
2023-01-26T16:41:32.621Z,88.1
2023-01-26T17:01:32.722Z,88.3
2023-01-26T17:21:32.714Z,88.3
2023-01-26T17:41:33.399Z,87.9
2023-01-26T18:01:32.916Z,87.9
2023-01-26T18:21:32.950Z,87.6
2023-01-26T18:41:32.989Z,87.5
2023-01-26T19:01:33.109Z,87.5
2023-01-26T19:21:34.040Z,87.3
2023-01-26T19:41:33.153Z,86.9
2023-01-26T20:01:33.189Z,86.6
2023-01-26T20:21:33.266Z,86.4
2023-01-26T20:41:33.344Z,84.3
2023-01-26T21:01:33.339Z,84
2023-01-26T21:21:33.457Z,83.8
2023-01-26T21:41:33.515Z,83.1
2023-01-26T22:01:33.521Z,82.9
2023-01-26T22:21:33.503Z,83.3
2023-01-26T22:41:33.665Z,83.9
2023-01-26T23:01:33.678Z,84
2023-01-26T23:21:33.777Z,83.7
2023-01-26T23:41:33.792Z,83.8
